Time;durP1;ratioP1;P1;durP2;ratioP2;P2;SDS_P1;SDS_P2;PMS_P1;PMS_P2;Temp;Humidity;BMP_temperature;BMP_pressure;BME280_temperature;BME280_humidity;BME280_pressure;Samples;Min_cycle;Max_cycle;Signal;HPM_P1;HPM_P2
2021/12/17 00:05:05;;;;;;;84.60;36.00;;;12.50;99.90;;;;;;5071286;28;20479;-70
2021/12/17 00:07:35;;;;;;;73.60;34.63;;;12.50;99.90;;;;;;5070589;28;20449;-70
2021/12/17 00:10:11;;;;;;;71.63;35.40;;;12.50;99.90;;;;;;5071092;28;20513;-70
2021/12/17 00:12:37;;;;;;;70.87;33.97;;;12.50;99.90;;;;;;5072039;28;20403;-69
2021/12/17 00:15:04;;;;;;;60.57;32.87;;;12.50;99.90;;;;;;5068464;28;20492;-69
2021/12/17 00:17:34;;;;;;;77.87;34.07;;;12.50;99.90;;;;;;5051954;28;20884;-69
2021/12/17 00:50:08;;;;;;;65.17;31.67;;;12.50;99.90;;;;;;5051221;28;20956;-69
2021/12/17 00:52:36;;;;;;;63.00;33.50;;;12.60;99.90;;;;;;5051652;28;20435;-70
2021/12/17 00:55:05;;;;;;;74.37;33.53;;;12.50;99.90;;;;;;5064147;28;20437;-69
2021/12/17 00:57:37;;;;;;;73.37;34.77;;;12.50;99.90;;;;;;5070316;28;20498;-69
2021/12/17 01:00:09;;;;;;;72.63;34.90;;;12.50;99.90;;;;;;5072462;28;20454;-69
2021/12/17 01:02:37;;;;;;;74.47;34.47;;;12.50;99.90;;;;;;5074910;28;20400;-69
2021/12/17 01:05:12;;;;;;;78.60;35.37;;;12.50;99.90;;;;;;5074274;28;20748;-69
2021/12/17 01:07:41;;;;;;;73.27;34.30;;;12.50;99.90;;;;;;5074871;28;20399;-69
2021/12/17 01:10:15;;;;;;;68.03;33.17;;;12.50;99.90;;;;;;5061119;28;20460;-70
2021/12/17 01:12:41;;;;;;;72.93;32.73;;;12.50;99.90;;;;;;5055025;28;20400;-69
2021/12/17 01:15:11;;;;;;;69.97;31.00;;;12.50;99.90;;;;;;5054287;28;21172;-69
2021/12/17 01:17:41;;;;;;;77.27;35.70;;;12.50;99.90;;;;;;5055109;28;20675;-69
2021/12/17 01:20:46;;;;;;;81.40;36.43;;;12.50;99.90;;;;;;5054265;28;20486;-70
2021/12/17 01:23:56;;;;;;;84.33;35.50;;;12.50;99.90;;;;;;5053735;28;20430;-69
2021/12/17 01:37:10;;;;;;;73.97;32.63;;;12.50;99.90;;;;;;5053814;28;20715;-73
2021/12/17 01:42:21;;;;;;;80.40;35.13;;;12.50;99.90;;;;;;5074519;28;20521;-69
2021/12/17 01:44:46;;;;;;;79.10;35.63;;;12.50;99.90;;;;;;5074395;28;20483;-69
2021/12/17 01:47:13;;;;;;;83.13;35.53;;;12.50;99.90;;;;;;5073418;28;20301;-69
2021/12/17 02:00:41;;;;;;;66.83;33.10;;;12.50;99.90;;;;;;5053815;28;20414;-70
2021/12/17 02:03:08;;;;;;;60.10;30.60;;;12.50;99.90;;;;;;5052936;28;20418;-68
2021/12/17 02:05:34;;;;;;;67.97;32.40;;;12.50;99.90;;;;;;5054222;28;20500;-68
2021/12/17 02:08:01;;;;;;;71.23;32.00;;;12.50;99.90;;;;;;5051907;28;20979;-68
2021/12/17 02:11:03;;;;;;;83.70;34.70;;;12.50;99.90;;;;;;5065125;28;20461;-68
2021/12/17 02:31:54;;;;;;;70.13;32.37;;;12.50;99.90;;;;;;5054541;28;20431;-68
2021/12/17 02:36:48;;;;;;;66.03;33.90;;;12.50;99.90;;;;;;5052125;28;20820;-68
2021/12/17 02:47:37;;;;;;;72.40;35.73;;;12.40;99.90;;;;;;5053444;28;20460;-68
2021/12/17 02:50:04;;;;;;;66.67;33.30;;;12.40;99.90;;;;;;5052201;28;20573;-68
2021/12/17 02:52:34;;;;;;;79.17;36.03;;;12.40;99.90;;;;;;5053086;28;20833;-68
2021/12/17 02:55:00;;;;;;;71.50;33.40;;;12.40;99.90;;;;;;5059677;28;20419;-68
2021/12/17 02:57:26;;;;;;;77.97;36.80;;;12.40;99.90;;;;;;5072914;28;20444;-69
2021/12/17 02:59:53;;;;;;;62.73;33.17;;;12.40;99.90;;;;;;5071551;28;20425;-69
2021/12/17 03:02:25;;;;;;;68.70;34.43;;;12.50;99.90;;;;;;5071996;28;20882;-69
2021/12/17 03:04:51;;;;;;;67.83;32.40;;;12.40;99.90;;;;;;5069814;28;20423;-69
2021/12/17 03:07:17;;;;;;;72.77;32.17;;;12.40;99.90;;;;;;5070525;28;20420;-69
2021/12/17 03:12:26;;;;;;;65.90;34.27;;;12.40;99.90;;;;;;5072009;28;20178;-69
2021/12/17 03:15:01;;;;;;;67.07;33.93;;;12.40;99.90;;;;;;5063391;28;20424;-69
2021/12/17 03:17:56;;;;;;;67.50;32.17;;;12.40;99.90;;;;;;5052694;28;20402;-69
2021/12/17 03:25:41;;;;;;;65.70;33.60;;;12.40;99.90;;;;;;5052695;28;20446;-69
2021/12/17 03:28:07;;;;;;;61.43;32.20;;;12.40;99.90;;;;;;5051676;28;20420;-69
2021/12/17 03:30:33;;;;;;;65.40;31.20;;;12.40;99.90;;;;;;5052660;28;20210;-69
2021/12/17 03:32:58;;;;;;;64.23;32.20;;;12.40;99.90;;;;;;5051784;28;20420;-77
2021/12/17 03:35:24;;;;;;;66.57;32.30;;;12.40;99.90;;;;;;5052311;28;20656;-69
2021/12/17 03:37:50;;;;;;;72.27;32.60;;;12.40;99.90;;;;;;5052574;28;20311;-69
2021/12/17 03:40:17;;;;;;;61.03;31.40;;;12.50;99.90;;;;;;5050558;28;20467;-69
2021/12/17 03:42:48;;;;;;;62.73;32.30;;;12.50;99.90;;;;;;5052131;28;20237;-69
2021/12/17 03:45:18;;;;;;;67.47;34.47;;;12.50;99.90;;;;;;5063157;28;20495;-69
2021/12/17 03:47:44;;;;;;;64.60;32.07;;;12.50;99.90;;;;;;5071045;28;20423;-69
2021/12/17 03:50:11;;;;;;;59.60;31.57;;;12.50;99.90;;;;;;5070056;28;20466;-69
2021/12/17 03:52:36;;;;;;;62.63;32.10;;;12.50;99.90;;;;;;5071921;28;20176;-69
2021/12/17 03:55:03;;;;;;;60.33;31.10;;;12.50;99.90;;;;;;5071289;28;20967;-69
2021/12/17 03:57:29;;;;;;;59.17;32.80;;;12.50;99.90;;;;;;5072439;28;20224;-69
2021/12/17 03:59:55;;;;;;;60.83;32.87;;;12.50;99.90;;;;;;5058781;28;20507;-69
2021/12/17 04:02:21;;;;;;;64.43;34.23;;;12.50;99.90;;;;;;5049942;28;20519;-69
2021/12/17 04:04:47;;;;;;;55.00;30.60;;;12.50;99.90;;;;;;5050770;28;20174;-69
2021/12/17 04:07:13;;;;;;;62.80;32.57;;;12.50;99.90;;;;;;5051163;28;20769;-68
2021/12/17 04:09:39;;;;;;;68.30;33.00;;;12.50;99.90;;;;;;5051851;28;20452;-68
2021/12/17 04:12:09;;;;;;;62.07;32.50;;;12.50;99.90;;;;;;5050877;28;20478;-69
2021/12/17 04:14:43;;;;;;;56.30;32.57;;;12.50;99.90;;;;;;5058674;28;20176;-68
2021/12/17 04:17:10;;;;;;;61.83;32.87;;;12.50;99.90;;;;;;5070975;28;20437;-69
2021/12/17 04:19:35;;;;;;;60.83;33.30;;;12.50;99.90;;;;;;5071582;28;20430;-68
2021/12/17 04:22:02;;;;;;;58.40;33.70;;;12.50;99.90;;;;;;5070699;28;20526;-80
2021/12/17 04:24:28;;;;;;;67.63;32.23;;;12.50;99.90;;;;;;5071716;28;20183;-68
2021/12/17 04:26:54;;;;;;;61.87;32.20;;;12.50;99.90;;;;;;5072171;28;20416;-68
2021/12/17 04:29:22;;;;;;;52.37;30.30;;;12.50;99.90;;;;;;5067292;28;20193;-69
2021/12/17 04:31:53;;;;;;;60.57;30.73;;;12.50;99.90;;;;;;5051549;28;20218;-68
2021/12/17 04:34:19;;;;;;;63.77;31.90;;;12.50;99.90;;;;;;5051061;28;20900;-68
2021/12/17 04:36:47;;;;;;;55.07;29.80;;;12.50;99.90;;;;;;5055373;28;20413;-68
2021/12/17 04:39:16;;;;;;;58.47;30.50;;;12.50;99.90;;;;;;5054797;28;20412;-68
2021/12/17 04:42:04;;;;;;;54.67;28.70;;;12.50;99.90;;;;;;5055810;28;20793;-72
2021/12/17 04:44:34;;;;;;;48.30;26.63;;;12.40;99.90;;;;;;5058513;28;20827;-69
2021/12/17 04:57:40;;;;;;;51.43;26.53;;;12.40;99.90;;;;;;5074973;28;20400;-68
2021/12/17 05:00:16;;;;;;;44.80;25.50;;;12.40;99.90;;;;;;5062708;28;20447;-70
2021/12/17 05:02:45;;;;;;;45.17;26.37;;;12.40;99.90;;;;;;5054931;28;20831;-68
2021/12/17 05:05:13;;;;;;;50.27;26.20;;;12.40;99.90;;;;;;5053357;28;20430;-71
2021/12/17 05:07:44;;;;;;;56.23;28.20;;;12.40;99.90;;;;;;5055099;28;20408;-68
2021/12/17 05:20:55;;;;;;;49.83;26.17;;;12.40;99.90;;;;;;5073544;28;20414;-69
2021/12/17 05:23:27;;;;;;;45.00;25.27;;;12.40;99.90;;;;;;5072767;28;20440;-69
2021/12/17 05:25:53;;;;;;;45.70;24.20;;;12.40;99.90;;;;;;5074633;28;20762;-69
2021/12/17 05:28:19;;;;;;;46.20;24.17;;;12.40;99.90;;;;;;5073600;28;20418;-69
2021/12/17 05:30:47;;;;;;;43.07;23.60;;;12.30;99.90;;;;;;5056250;28;20456;-68
2021/12/17 05:33:17;;;;;;;44.40;23.77;;;12.30;99.90;;;;;;5052571;28;20188;-69
2021/12/17 05:35:43;;;;;;;40.93;23.70;;;12.30;99.90;;;;;;5054605;28;20412;-68
2021/12/17 05:38:10;;;;;;;45.90;23.30;;;12.30;99.90;;;;;;5053406;28;20502;-69
2021/12/17 05:40:37;;;;;;;39.87;21.70;;;12.30;99.90;;;;;;5054597;28;20421;-69
2021/12/17 05:43:05;;;;;;;37.40;21.47;;;12.30;99.90;;;;;;5054224;28;20470;-76
2021/12/17 05:45:35;;;;;;;31.07;19.80;;;12.30;99.90;;;;;;5066831;28;20467;-68
2021/12/17 05:48:04;;;;;;;33.70;19.43;;;12.30;99.90;;;;;;5074073;28;20476;-68
2021/12/17 05:50:30;;;;;;;36.10;21.63;;;12.30;99.90;;;;;;5073516;28;20483;-69
2021/12/17 05:52:56;;;;;;;37.20;19.33;;;12.30;99.90;;;;;;5074281;28;20855;-68
2021/12/17 05:55:22;;;;;;;31.40;18.80;;;12.30;99.90;;;;;;5073416;28;20482;-68
2021/12/17 05:57:48;;;;;;;36.73;20.30;;;12.30;99.90;;;;;;5073988;28;20458;-70
2021/12/17 06:00:14;;;;;;;30.77;19.50;;;12.20;99.90;;;;;;5057245;28;20424;-69
2021/12/17 06:02:40;;;;;;;34.10;19.83;;;12.20;99.90;;;;;;5053636;28;20255;-68
2021/12/17 06:05:06;;;;;;;31.90;18.73;;;12.20;99.90;;;;;;5053642;28;20420;-80
2021/12/17 06:07:32;;;;;;;29.70;17.73;;;12.30;99.90;;;;;;5052484;28;20264;-68
2021/12/17 06:10:00;;;;;;;28.47;18.40;;;12.30;99.90;;;;;;5052231;28;20483;-68
2021/12/17 06:12:25;;;;;;;32.70;18.67;;;12.30;99.90;;;;;;5051588;28;20769;-69
2021/12/17 06:14:51;;;;;;;33.70;19.53;;;12.20;99.90;;;;;;5052229;28;20507;-68
2021/12/17 06:17:17;;;;;;;33.63;18.10;;;12.30;99.90;;;;;;5053003;28;20220;-69
2021/12/17 06:19:43;;;;;;;28.40;18.00;;;12.30;99.90;;;;;;5054436;28;20641;-68
2021/12/17 06:22:09;;;;;;;27.53;17.23;;;12.30;99.90;;;;;;5053025;28;20180;-78
2021/12/17 06:24:34;;;;;;;31.20;17.33;;;12.20;99.90;;;;;;5052261;28;20182;-68
2021/12/17 06:27:00;;;;;;;27.07;16.50;;;12.20;99.90;;;;;;5053544;28;20421;-68
2021/12/17 06:29:26;;;;;;;29.10;16.93;;;12.30;99.90;;;;;;5068127;28;20243;-69
2021/12/17 06:31:51;;;;;;;25.60;16.47;;;12.30;99.90;;;;;;5059494;28;20196;-69
2021/12/17 06:34:17;;;;;;;26.50;16.53;;;12.30;99.90;;;;;;5052640;28;20317;-70
2021/12/17 06:36:43;;;;;;;25.77;15.90;;;12.30;99.90;;;;;;5068089;28;20548;-69
2021/12/17 06:39:09;;;;;;;23.73;16.17;;;12.30;99.90;;;;;;5071063;28;20242;-77
2021/12/17 06:41:35;;;;;;;25.30;16.77;;;12.30;99.90;;;;;;5071578;28;20193;-69
2021/12/17 06:44:02;;;;;;;26.83;17.30;;;12.30;99.90;;;;;;5071469;28;20174;-69
2021/12/17 06:46:37;;;;;;;26.10;16.40;;;12.30;99.90;;;;;;5069711;28;20916;-70
2021/12/17 06:59:57;;;;;;;30.57;20.07;;;12.30;99.90;;;;;;5072583;28;20415;-68
2021/12/17 07:10:44;;;;;;;40.97;21.43;;;12.20;99.90;;;;;;5067297;28;20454;-69
2021/12/17 07:34:05;;;;;;;31.20;18.90;;;12.10;99.90;;;;;;5071183;28;20672;-69
2021/12/17 07:36:40;;;;;;;31.27;18.60;;;12.10;99.90;;;;;;5070852;28;20465;-69
2021/12/17 07:39:06;;;;;;;31.90;20.07;;;12.10;99.90;;;;;;5071188;28;20481;-70
2021/12/17 07:41:32;;;;;;;31.70;17.93;;;12.10;99.90;;;;;;5070479;28;20914;-69
2021/12/17 07:44:00;;;;;;;25.47;16.20;;;12.10;99.90;;;;;;5070866;28;20486;-69
2021/12/17 07:46:26;;;;;;;27.30;19.03;;;12.10;99.90;;;;;;5070586;28;20411;-73
2021/12/17 07:48:52;;;;;;;26.07;17.93;;;12.10;99.90;;;;;;5069095;28;20923;-69
2021/12/17 07:51:21;;;;;;;23.87;16.03;;;12.10;99.90;;;;;;5070099;28;20209;-68
2021/12/17 07:53:48;;;;;;;22.00;14.80;;;12.10;99.90;;;;;;5063618;28;20428;-68
2021/12/17 07:56:16;;;;;;;23.23;15.83;;;12.20;99.90;;;;;;5070523;28;20414;-68
2021/12/17 07:58:42;;;;;;;20.53;14.07;;;12.10;99.90;;;;;;5071545;28;20400;-69
2021/12/17 08:01:10;;;;;;;21.40;15.70;;;12.20;99.90;;;;;;5070366;28;20976;-76
2021/12/17 08:03:37;;;;;;;22.10;14.90;;;12.20;99.90;;;;;;5066576;28;20929;-69
2021/12/17 08:06:03;;;;;;;23.03;14.50;;;12.20;99.90;;;;;;5060534;28;20465;-69
2021/12/17 08:08:29;;;;;;;23.27;17.67;;;12.10;99.90;;;;;;5063513;28;20467;-69
2021/12/17 08:10:55;;;;;;;27.83;16.93;;;12.10;99.90;;;;;;5075057;28;20205;-68
2021/12/17 08:13:24;;;;;;;22.70;15.87;;;12.20;99.90;;;;;;5071151;28;20217;-74
2021/12/17 08:16:26;;;;;;;21.80;17.07;;;12.20;99.90;;;;;;5071308;28;20442;-74
2021/12/17 08:27:09;;;;;;;21.87;13.40;;;13.90;99.90;;;;;;5056204;28;20447;-72
2021/12/17 08:32:05;;;;;;;27.53;16.07;;;14.60;99.90;;;;;;5071644;28;20434;-73
2021/12/17 08:34:32;;;;;;;20.87;13.67;;;14.80;99.90;;;;;;5075678;28;20401;-72
2021/12/17 08:36:58;;;;;;;21.37;15.20;;;15.10;99.90;;;;;;5075359;28;20511;-73
2021/12/17 08:39:25;;;;;;;22.87;13.80;;;15.30;99.90;;;;;;5075334;28;20518;-73
2021/12/17 08:41:53;;;;;;;22.47;15.43;;;15.50;99.90;;;;;;5074541;28;20568;-73
2021/12/17 08:44:20;;;;;;;20.73;14.27;;;15.60;99.90;;;;;;5065901;28;20460;-73
2021/12/17 08:46:46;;;;;;;19.93;14.83;;;15.70;99.90;;;;;;5068784;28;20988;-73
2021/12/17 08:49:12;;;;;;;21.70;14.67;;;15.80;99.90;;;;;;5095291;28;20504;-75
2021/12/17 08:51:38;;;;;;;20.10;14.30;;;15.80;99.90;;;;;;5090430;28;20536;-73
2021/12/17 08:54:05;;;;;;;18.30;13.73;;;16.00;99.90;;;;;;5056911;28;20642;-73
2021/12/17 08:56:35;;;;;;;21.47;14.83;;;16.00;99.90;;;;;;5074514;28;21074;-73
2021/12/17 08:59:06;;;;;;;19.43;14.23;;;16.10;99.90;;;;;;5063031;28;20415;-73
2021/12/17 09:01:32;;;;;;;15.43;11.13;;;16.10;99.90;;;;;;5073364;28;20415;-73
2021/12/17 09:03:58;;;;;;;14.43;11.30;;;16.10;99.90;;;;;;5075509;28;20500;-72
2021/12/17 09:06:26;;;;;;;12.27;10.37;;;16.20;99.90;;;;;;5069801;28;20525;-72
2021/12/17 09:08:56;;;;;;;13.00;10.30;;;16.20;99.90;;;;;;5074075;28;20180;-73
2021/12/17 09:11:24;;;;;;;13.30;10.60;;;16.20;99.90;;;;;;5060171;28;20865;-72
2021/12/17 09:13:51;;;;;;;12.00;10.67;;;16.70;99.90;;;;;;5075323;28;20419;-73
2021/12/17 09:16:20;;;;;;;10.93;9.23;;;16.90;99.20;;;;;;5074439;28;20434;-73
2021/12/17 09:18:47;;;;;;;10.67;9.57;;;17.10;99.90;;;;;;5075056;28;20443;-72
2021/12/17 09:21:13;;;;;;;10.80;9.80;;;17.40;97.80;;;;;;5073640;28;20729;-72
2021/12/17 09:23:39;;;;;;;14.07;9.47;;;17.20;96.90;;;;;;5074361;28;20426;-73
2021/12/17 09:26:05;;;;;;;9.30;8.40;;;17.10;99.90;;;;;;5055393;28;20447;-72
2021/12/17 09:28:31;;;;;;;14.50;13.00;;;17.60;99.90;;;;;;5054040;28;20188;-72
2021/12/17 09:30:58;;;;;;;11.70;10.50;;;18.10;99.20;;;;;;5070909;28;20209;-72
2021/12/17 09:33:25;;;;;;;8.77;7.90;;;18.10;96.70;;;;;;5094024;28;20510;-72
2021/12/17 09:35:51;;;;;;;8.73;7.93;;;18.10;97.50;;;;;;5093309;28;20407;-72
2021/12/17 09:38:18;;;;;;;10.53;9.53;;;18.10;98.90;;;;;;5067667;28;20423;-73
2021/12/17 09:40:50;;;;;;;8.90;8.03;;;18.20;95.70;;;;;;5058418;28;20424;-72
2021/12/17 09:43:16;;;;;;;8.40;7.60;;;18.10;94.90;;;;;;5065570;28;20447;-74
2021/12/17 09:45:43;;;;;;;9.07;8.27;;;17.90;98.30;;;;;;5074153;28;20466;-72
2021/12/17 09:48:08;;;;;;;8.40;7.60;;;17.80;97.30;;;;;;5074691;28;20510;-72
2021/12/17 09:50:34;;;;;;;7.93;7.13;;;17.70;98.10;;;;;;5062253;28;20554;-72
2021/12/17 09:53:01;;;;;;;8.70;7.90;;;17.70;98.00;;;;;;5054533;28;20174;-72
2021/12/17 09:55:27;;;;;;;8.40;7.70;;;17.60;96.30;;;;;;5052743;28;20782;-72
2021/12/17 09:57:53;;;;;;;9.03;8.23;;;17.50;96.60;;;;;;5054580;28;20424;-72
2021/12/17 10:00:22;;;;;;;8.50;7.70;;;17.30;95.60;;;;;;5066377;28;20453;-72
2021/12/17 10:02:49;;;;;;;10.00;9.10;;;17.20;96.10;;;;;;5054390;28;20413;-72
2021/12/17 10:05:19;;;;;;;8.50;7.77;;;17.10;96.80;;;;;;5054111;28;20416;-73
2021/12/17 10:07:45;;;;;;;8.00;7.30;;;17.10;97.00;;;;;;5053010;28;20481;-73
2021/12/17 10:10:13;;;;;;;8.60;7.80;;;17.10;97.10;;;;;;5054102;28;20459;-71
2021/12/17 10:12:39;;;;;;;6.90;6.30;;;17.00;96.80;;;;;;5061401;28;20427;-71
2021/12/17 10:15:09;;;;;;;7.73;7.03;;;16.90;96.40;;;;;;5073776;28;20419;-73
2021/12/17 10:17:58;;;;;;;6.57;5.97;;;16.80;97.20;;;;;;5052999;28;20788;-73
2021/12/17 10:20:25;;;;;;;8.10;7.40;;;16.70;97.80;;;;;;5073833;28;20399;-73
2021/12/17 10:23:07;;;;;;;8.80;8.00;;;16.70;99.00;;;;;;5067436;28;20857;-73
2021/12/17 10:25:35;;;;;;;6.90;6.30;;;16.60;97.90;;;;;;5053499;28;20793;-73
2021/12/17 10:28:04;;;;;;;7.30;6.57;;;16.60;98.10;;;;;;5046605;28;20479;-73
2021/12/17 10:30:32;;;;;;;6.13;5.63;;;16.60;97.50;;;;;;5082926;28;20479;-73
2021/12/17 10:33:02;;;;;;;6.90;6.30;;;16.60;97.60;;;;;;5094001;28;20414;-73
2021/12/17 10:35:31;;;;;;;6.70;6.20;;;16.70;97.80;;;;;;5085747;28;20441;-74
2021/12/17 10:38:00;;;;;;;6.90;6.40;;;16.60;97.30;;;;;;5072663;28;20479;-73
2021/12/17 10:40:28;;;;;;;6.77;6.17;;;16.50;97.60;;;;;;5073386;28;20418;-74
2021/12/17 10:43:07;;;;;;;6.87;6.23;;;16.40;97.50;;;;;;5072559;28;20430;-73
2021/12/17 10:45:45;;;;;;;8.00;7.23;;;16.40;97.60;;;;;;5072880;28;20465;-73
2021/12/17 10:48:29;;;;;;;8.00;7.30;;;16.10;98.10;;;;;;5059192;28;20495;-73
2021/12/17 10:51:08;;;;;;;7.50;6.37;;;16.00;98.70;;;;;;5053682;28;20454;-73
2021/12/17 10:53:34;;;;;;;7.03;6.43;;;15.90;99.20;;;;;;5052858;28;20440;-73
2021/12/17 10:55:59;;;;;;;6.80;6.10;;;16.00;99.30;;;;;;5061728;28;20918;-73
2021/12/17 10:58:26;;;;;;;6.90;6.30;;;16.10;99.90;;;;;;5072742;28;20570;-73
2021/12/17 11:00:59;;;;;;;5.73;5.27;;;16.20;99.80;;;;;;5073361;28;20270;-73
2021/12/17 11:03:25;;;;;;;6.50;5.90;;;16.20;99.90;;;;;;5070795;28;20438;-73
2021/12/17 11:05:51;;;;;;;6.57;5.97;;;16.40;99.70;;;;;;5055360;28;20833;-72
2021/12/17 11:08:28;;;;;;;6.33;5.83;;;16.50;98.70;;;;;;5054978;28;20429;-72
2021/12/17 11:10:58;;;;;;;6.00;5.40;;;16.40;98.10;;;;;;5061751;28;20463;-72
2021/12/17 11:13:25;;;;;;;6.60;6.00;;;16.50;98.20;;;;;;5071685;28;20460;-73
2021/12/17 11:15:52;;;;;;;6.97;6.27;;;16.40;98.10;;;;;;5068507;28;20438;-73
2021/12/17 11:18:19;;;;;;;6.77;6.27;;;16.50;98.50;;;;;;5072955;28;20820;-73
2021/12/17 11:20:46;;;;;;;8.03;7.20;;;16.50;99.10;;;;;;5072674;28;20870;-73
2021/12/17 11:23:14;;;;;;;8.93;8.13;;;16.50;98.00;;;;;;5073205;28;20422;-73
2021/12/17 11:25:46;;;;;;;8.50;7.20;;;16.50;97.90;;;;;;5064114;28;20425;-73
2021/12/17 11:28:12;;;;;;;7.20;6.50;;;16.40;97.60;;;;;;5057817;28;20483;-73
2021/12/17 11:30:42;;;;;;;6.87;6.33;;;16.30;98.90;;;;;;5072401;28;20549;-73
2021/12/17 11:33:08;;;;;;;8.80;6.70;;;16.30;99.40;;;;;;5072796;28;20513;-73
2021/12/17 11:35:36;;;;;;;7.50;6.47;;;16.30;97.90;;;;;;5070301;28;20440;-73
2021/12/17 11:38:14;;;;;;;6.60;6.00;;;16.20;97.80;;;;;;5061604;28;20432;-73
2021/12/17 11:40:52;;;;;;;6.10;5.50;;;16.00;99.00;;;;;;5070090;28;20427;-77
2021/12/17 11:43:48;;;;;;;7.10;6.13;;;16.00;98.60;;;;;;5052031;28;20417;-73
2021/12/17 11:46:14;;;;;;;7.50;6.77;;;15.80;98.50;;;;;;5052846;28;20411;-73
2021/12/17 11:48:49;;;;;;;7.17;6.47;;;15.80;99.00;;;;;;5065272;28;20754;-73
2021/12/17 11:51:17;;;;;;;7.30;6.60;;;15.80;99.60;;;;;;5072234;28;20811;-72
2021/12/17 11:53:52;;;;;;;10.40;9.30;;;15.90;99.90;;;;;;5071436;28;20490;-73
2021/12/17 11:56:42;;;;;;;9.13;7.83;;;16.00;98.90;;;;;;5072447;28;20417;-73
2021/12/17 11:59:23;;;;;;;6.57;5.97;;;16.10;98.60;;;;;;5072502;28;20436;-71
2021/12/17 12:02:16;;;;;;;6.40;5.90;;;16.10;98.20;;;;;;5070184;28;20437;-72
2021/12/17 12:05:06;;;;;;;5.60;5.10;;;16.20;98.70;;;;;;5069645;28;20790;-73
2021/12/17 12:07:37;;;;;;;5.50;5.00;;;16.30;98.50;;;;;;5051332;28;20408;-73
2021/12/17 12:10:13;;;;;;;4.20;3.90;;;16.30;97.90;;;;;;5052483;28;20450;-73
2021/12/17 12:12:41;;;;;;;4.07;3.77;;;16.30;97.40;;;;;;5051609;28;20444;-73
2021/12/17 12:15:24;;;;;;;3.50;3.30;;;16.20;96.90;;;;;;5052552;28;20426;-72
2021/12/17 12:18:00;;;;;;;3.57;3.37;;;16.00;97.30;;;;;;5052187;28;20426;-72
2021/12/17 12:20:55;;;;;;;4.17;3.77;;;15.90;99.20;;;;;;5057088;28;21053;-73
2021/12/17 12:23:29;;;;;;;3.27;3.07;;;15.60;98.90;;;;;;5070244;28;20435;-72
2021/12/17 12:26:01;;;;;;;3.67;3.37;;;15.50;98.00;;;;;;5069055;28;20441;-72
2021/12/17 12:28:45;;;;;;;3.33;3.10;;;15.40;97.90;;;;;;5060743;28;20444;-67
2021/12/17 12:31:17;;;;;;;5.20;3.53;;;15.20;98.20;;;;;;5052862;28;20471;-68
2021/12/17 12:34:04;;;;;;;5.07;4.67;;;15.00;98.50;;;;;;5064413;28;21092;-67
2021/12/17 12:37:09;;;;;;;6.57;5.07;;;14.80;98.80;;;;;;5057819;28;20430;-69
2021/12/17 12:39:53;;;;;;;6.13;4.60;;;14.50;98.90;;;;;;5066837;28;20419;-68
2021/12/17 12:42:22;;;;;;;4.77;4.23;;;14.20;99.50;;;;;;5072002;28;20439;-68
2021/12/17 12:44:47;;;;;;;5.90;4.90;;;14.00;99.90;;;;;;5070574;28;20739;-68
2021/12/17 12:47:36;;;;;;;5.83;5.13;;;13.80;99.90;;;;;;5077398;28;20901;-67
2021/12/17 12:50:06;;;;;;;5.33;4.87;;;13.70;99.90;;;;;;5071234;28;20201;-67
2021/12/17 12:52:38;;;;;;;5.97;5.53;;;13.40;99.90;;;;;;5071502;28;20445;-68
2021/12/17 12:55:20;;;;;;;4.23;3.83;;;13.30;99.90;;;;;;5056243;28;20760;-67
2021/12/17 12:57:50;;;;;;;5.30;4.80;;;13.20;99.90;;;;;;5056062;28;20455;-69
2021/12/17 13:00:25;;;;;;;5.20;4.30;;;13.10;99.90;;;;;;5055625;28;20473;-67
2021/12/17 13:03:03;;;;;;;5.97;5.47;;;12.90;99.90;;;;;;5055711;28;20497;-67
2021/12/17 13:05:29;;;;;;;6.33;5.73;;;12.80;99.90;;;;;;5053742;28;20855;-67
2021/12/17 13:08:01;;;;;;;6.30;5.57;;;12.60;99.90;;;;;;5058372;28;20891;-68
2021/12/17 13:10:36;;;;;;;6.37;5.10;;;12.50;99.90;;;;;;5073512;28;20916;-74
2021/12/17 13:21:34;;;;;;;5.90;4.60;;;12.10;99.90;;;;;;5083757;28;20424;-67
2021/12/17 13:24:14;;;;;;;5.40;5.00;;;12.20;99.90;;;;;;5072028;28;20515;-68
2021/12/17 13:27:01;;;;;;;4.90;4.50;;;12.00;99.90;;;;;;5054306;28;20902;-67
2021/12/17 13:29:33;;;;;;;7.30;6.60;;;12.00;99.90;;;;;;5054602;28;20420;-75
2021/12/17 13:32:02;;;;;;;8.13;7.27;;;11.90;99.90;;;;;;5054798;28;20453;-67
2021/12/17 13:34:35;;;;;;;7.80;7.00;;;11.90;99.90;;;;;;5053924;28;20792;-76
2021/12/17 13:37:04;;;;;;;8.27;7.43;;;11.90;99.90;;;;;;5054829;28;20814;-69
2021/12/17 13:39:50;;;;;;;10.23;7.30;;;11.80;99.90;;;;;;5061694;28;20423;-69
2021/12/17 13:42:17;;;;;;;7.73;6.60;;;11.80;99.90;;;;;;5071419;28;20469;-68
2021/12/17 13:44:52;;;;;;;7.37;6.60;;;11.80;99.90;;;;;;5058888;28;20487;-67
2021/12/17 13:47:22;;;;;;;8.40;6.60;;;11.80;99.90;;;;;;5035761;28;20474;-67
2021/12/17 13:50:14;;;;;;;10.33;8.40;;;11.80;99.90;;;;;;5060907;28;20819;-67
2021/12/17 13:52:58;;;;;;;10.40;8.03;;;11.80;99.90;;;;;;5072404;28;20433;-67
2021/12/17 13:55:30;;;;;;;7.80;7.10;;;11.80;99.90;;;;;;5072899;28;20913;-67
2021/12/17 13:57:58;;;;;;;7.40;6.70;;;11.70;99.90;;;;;;5071922;28;20416;-67
2021/12/17 14:00:33;;;;;;;7.10;6.37;;;11.70;99.90;;;;;;5069806;28;20791;-67
2021/12/17 14:03:00;;;;;;;7.37;6.60;;;11.70;99.90;;;;;;5070107;28;20819;-68
2021/12/17 14:05:40;;;;;;;7.73;6.77;;;11.70;99.90;;;;;;5071683;28;20427;-68
2021/12/17 14:08:09;;;;;;;7.77;6.97;;;11.70;99.90;;;;;;5069534;28;20576;-70
2021/12/17 14:10:36;;;;;;;6.93;6.10;;;11.70;99.90;;;;;;5072440;28;20454;-67
2021/12/17 14:13:04;;;;;;;9.03;6.23;;;11.60;99.90;;;;;;5072234;28;20423;-67
2021/12/17 14:15:33;;;;;;;9.93;6.47;;;11.70;99.90;;;;;;5072818;28;20910;-74
2021/12/17 14:18:06;;;;;;;7.90;6.53;;;11.70;99.90;;;;;;5066396;28;20459;-66
2021/12/17 14:20:44;;;;;;;6.53;5.90;;;11.60;99.90;;;;;;5052808;28;20856;-71
2021/12/17 14:23:19;;;;;;;6.83;6.10;;;11.60;99.90;;;;;;5053665;28;20399;-67
2021/12/17 14:25:55;;;;;;;6.17;5.57;;;11.50;99.90;;;;;;5051645;28;20411;-67
2021/12/17 14:28:25;;;;;;;85.37;56.30;;;11.60;99.90;;;;;;5056691;28;20431;-67
2021/12/17 14:31:01;;;;;;;17.60;12.00;;;11.70;99.90;;;;;;5073267;28;20454;-67
2021/12/17 14:33:39;;;;;;;114.37;63.23;;;11.70;99.90;;;;;;5064445;28;20418;-68
2021/12/17 14:36:12;;;;;;;9.90;8.40;;;11.70;99.90;;;;;;5071760;28;20894;-67
2021/12/17 14:38:46;;;;;;;6.43;5.37;;;11.70;99.90;;;;;;5053644;28;20523;-67
2021/12/17 14:41:26;;;;;;;5.60;5.20;;;11.60;99.90;;;;;;5055246;28;20424;-67
2021/12/17 14:43:59;;;;;;;7.37;5.60;;;11.50;99.90;;;;;;5069581;28;20445;-67
2021/12/17 14:46:30;;;;;;;5.83;5.30;;;11.50;99.90;;;;;;5073486;28;20445;-67
2021/12/17 15:05:34;;;;;;;6.90;6.07;;;11.70;99.90;;;;;;5072610;28;20760;-68
2021/12/17 15:08:01;;;;;;;8.23;6.83;;;11.70;99.90;;;;;;5072675;28;20440;-67
2021/12/17 15:10:27;;;;;;;7.40;5.83;;;11.70;99.90;;;;;;5072724;28;20249;-68
2021/12/17 15:12:56;;;;;;;7.00;6.40;;;11.70;99.90;;;;;;5072514;28;20422;-68
2021/12/17 15:15:25;;;;;;;6.60;5.97;;;11.70;99.90;;;;;;5073079;28;20450;-67
2021/12/17 15:17:52;;;;;;;6.60;5.97;;;11.70;99.90;;;;;;5070949;28;20749;-68
2021/12/17 15:20:31;;;;;;;7.90;6.10;;;11.70;99.90;;;;;;5072695;28;20415;-67
2021/12/17 15:22:59;;;;;;;7.00;6.30;;;11.80;99.90;;;;;;5073159;28;20419;-67
2021/12/17 15:25:27;;;;;;;7.70;7.00;;;11.80;99.80;;;;;;5072640;28;20435;-67
2021/12/17 15:27:53;;;;;;;6.77;6.20;;;11.80;99.40;;;;;;5071819;28;21087;-67
2021/12/17 15:30:23;;;;;;;7.67;6.07;;;11.70;99.50;;;;;;5071852;28;20475;-67
2021/12/17 15:32:49;;;;;;;7.30;6.70;;;11.70;99.50;;;;;;5070560;28;20410;-67
2021/12/17 15:35:17;;;;;;;7.60;6.67;;;11.70;99.50;;;;;;5072598;28;20462;-67
2021/12/17 15:37:43;;;;;;;6.90;6.20;;;11.70;99.60;;;;;;5072227;28;20176;-67
2021/12/17 15:40:10;;;;;;;7.50;6.60;;;11.70;99.40;;;;;;5072702;28;20417;-67
2021/12/17 15:42:37;;;;;;;7.47;6.77;;;11.70;99.40;;;;;;5072083;28;20427;-68
2021/12/17 15:45:04;;;;;;;7.40;6.70;;;11.70;99.60;;;;;;5072780;28;20494;-67
2021/12/17 15:47:30;;;;;;;8.40;6.10;;;11.70;99.80;;;;;;5072615;28;20428;-67
2021/12/17 15:49:55;;;;;;;8.00;6.87;;;11.60;99.60;;;;;;5071948;28;20434;-67
2021/12/17 15:52:21;;;;;;;6.70;6.10;;;11.40;99.50;;;;;;5072573;28;20183;-67
2021/12/17 15:54:47;;;;;;;7.83;7.13;;;11.40;99.80;;;;;;5071693;28;20180;-67
2021/12/17 15:57:15;;;;;;;8.83;7.50;;;11.40;99.60;;;;;;5072499;28;20177;-67
2021/12/17 15:59:45;;;;;;;7.67;6.53;;;11.30;99.70;;;;;;5054386;28;20849;-67
2021/12/17 16:02:11;;;;;;;7.70;6.50;;;11.30;99.80;;;;;;5071244;28;20446;-67
2021/12/17 16:04:41;;;;;;;7.70;6.97;;;11.30;99.90;;;;;;5070395;28;20906;-67